createdAt,value
2023-03-07T00:01:08.720Z,2.60
2023-03-07T00:03:36.975Z,2.60
2023-03-07T00:06:09.890Z,2.60
2023-03-07T00:08:36.730Z,2.50
2023-03-07T00:11:08.458Z,2.50
2023-03-07T00:13:37.287Z,2.50
2023-03-07T00:16:10.400Z,2.50
2023-03-07T00:18:37.608Z,2.50
2023-03-07T00:21:07.323Z,2.50
2023-03-07T00:23:35.952Z,2.50
2023-03-07T00:26:05.397Z,2.60
2023-03-07T00:28:32.611Z,2.60
2023-03-07T00:31:04.775Z,2.60
2023-03-07T00:33:32.024Z,2.70
2023-03-07T00:36:01.494Z,2.70
2023-03-07T00:38:30.077Z,2.70
2023-03-07T00:41:08.054Z,2.80
2023-03-07T00:43:35.541Z,2.80
2023-03-07T00:46:03.321Z,2.80
2023-03-07T00:48:32.818Z,2.80
2023-03-07T00:50:59.733Z,2.80
2023-03-07T00:53:26.781Z,2.90
2023-03-07T00:56:05.719Z,2.90
2023-03-07T00:58:35.035Z,2.90
2023-03-07T01:01:03.132Z,2.90
2023-03-07T01:03:30.717Z,2.90
2023-03-07T01:05:58.120Z,2.90
2023-03-07T01:08:24.977Z,2.90
2023-03-07T01:10:51.812Z,3.00
2023-03-07T01:13:19.757Z,3.00
2023-03-07T01:15:46.809Z,3.00
2023-03-07T01:18:13.673Z,3.00
2023-03-07T01:20:41.460Z,3.00
2023-03-07T01:23:08.613Z,3.00
2023-03-07T01:25:43.258Z,3.00
2023-03-07T01:28:13.915Z,3.00
2023-03-07T01:30:41.309Z,3.00
2023-03-07T01:33:09.504Z,3.00
2023-03-07T01:35:40.361Z,3.10
2023-03-07T01:38:07.392Z,3.10
2023-03-07T01:40:34.413Z,3.10
2023-03-07T01:43:40.216Z,3.10
2023-03-07T01:46:39.395Z,3.10
2023-03-07T01:49:38.188Z,3.20
2023-03-07T01:52:12.898Z,3.20
2023-03-07T01:54:48.926Z,3.30
2023-03-07T01:57:20.205Z,3.30
2023-03-07T01:59:50.017Z,3.30
2023-03-07T02:02:19.788Z,3.40
2023-03-07T02:05:04.703Z,3.40
2023-03-07T02:07:57.433Z,3.40
2023-03-07T02:10:25.680Z,3.50
2023-03-07T02:12:56.231Z,3.50
2023-03-07T02:15:23.797Z,3.60
2023-03-07T02:17:51.544Z,3.60
2023-03-07T02:20:40.680Z,3.60
2023-03-07T02:23:13.731Z,3.60
2023-03-07T02:26:18.286Z,3.60
2023-03-07T02:28:48.045Z,3.60
2023-03-07T02:31:15.056Z,3.60
2023-03-07T02:33:41.990Z,3.70
2023-03-07T02:36:13.221Z,3.70
2023-03-07T02:38:43.364Z,3.70
2023-03-07T02:41:12.408Z,3.70
2023-03-07T02:43:39.499Z,3.70
2023-03-07T02:46:06.612Z,3.70
2023-03-07T02:48:33.539Z,3.70
2023-03-07T02:51:00.541Z,3.70
2023-03-07T02:53:27.397Z,3.70
2023-03-07T02:55:54.271Z,3.80
2023-03-07T02:58:21.131Z,3.80
2023-03-07T03:00:48.171Z,3.80
2023-03-07T03:03:15.099Z,3.80
2023-03-07T03:05:41.955Z,3.80
2023-03-07T03:08:08.861Z,3.80
2023-03-07T03:10:35.735Z,3.80
2023-03-07T03:13:02.726Z,3.80
2023-03-07T03:15:29.723Z,3.80
2023-03-07T03:17:56.695Z,3.80
2023-03-07T03:20:25.493Z,3.90
2023-03-07T03:22:53.240Z,3.90
2023-03-07T03:25:23.223Z,3.90
2023-03-07T03:27:51.028Z,3.90
2023-03-07T03:30:18.095Z,3.90
2023-03-07T03:32:45.059Z,3.90
2023-03-07T03:35:11.959Z,4.00
2023-03-07T03:37:39.353Z,3.90
2023-03-07T03:40:14.481Z,4.00
2023-03-07T03:42:42.625Z,4.00
2023-03-07T03:45:10.812Z,3.90
2023-03-07T03:47:38.090Z,4.00
2023-03-07T03:50:05.474Z,3.90
2023-03-07T03:52:32.324Z,4.00
2023-03-07T03:54:59.124Z,4.00
2023-03-07T03:57:25.939Z,4.00
2023-03-07T03:59:52.778Z,4.00
2023-03-07T04:02:19.775Z,3.90
2023-03-07T04:04:46.653Z,3.90
2023-03-07T04:07:13.552Z,3.90
2023-03-07T04:09:40.425Z,3.90
2023-03-07T04:12:07.783Z,3.90
2023-03-07T04:14:34.637Z,3.90
2023-03-07T04:17:01.493Z,3.90
2023-03-07T04:19:29.530Z,3.90
2023-03-07T04:21:56.500Z,3.90
2023-03-07T04:24:23.399Z,3.90
2023-03-07T04:26:50.481Z,3.80
2023-03-07T04:29:17.418Z,3.80
2023-03-07T04:31:44.509Z,3.80
2023-03-07T04:34:11.651Z,3.80
2023-03-07T04:36:38.563Z,3.80
2023-03-07T04:39:05.461Z,3.80
2023-03-07T04:41:33.631Z,3.80
2023-03-07T04:44:00.508Z,3.80
2023-03-07T04:46:28.281Z,3.80
2023-03-07T04:48:55.182Z,3.70
2023-03-07T04:51:22.404Z,3.70
2023-03-07T04:53:49.261Z,3.70
2023-03-07T04:56:16.383Z,3.70
2023-03-07T04:58:44.161Z,3.70
2023-03-07T05:01:11.810Z,3.70
2023-03-07T05:03:38.706Z,3.70
2023-03-07T05:06:12.797Z,3.60
2023-03-07T05:08:39.690Z,3.60
2023-03-07T05:11:06.541Z,3.60
2023-03-07T05:13:33.467Z,3.60
2023-03-07T05:16:00.501Z,3.60
2023-03-07T05:18:28.334Z,3.60
2023-03-07T05:20:55.456Z,3.60
2023-03-07T05:23:22.515Z,3.50
2023-03-07T05:25:49.988Z,3.50
2023-03-07T05:28:17.609Z,3.50
2023-03-07T05:30:45.807Z,3.50
2023-03-07T05:33:12.960Z,3.50
2023-03-07T05:35:39.997Z,3.50
2023-03-07T05:38:07.511Z,3.40
2023-03-07T05:40:34.896Z,3.40
2023-03-07T05:43:02.139Z,3.40
2023-03-07T05:45:29.004Z,3.40
2023-03-07T05:47:55.927Z,3.40
2023-03-07T05:50:22.825Z,3.40
2023-03-07T05:52:49.777Z,3.40
2023-03-07T05:55:16.739Z,3.40
2023-03-07T05:57:43.639Z,3.40
2023-03-07T06:00:11.533Z,3.40
2023-03-07T06:02:38.478Z,3.40
2023-03-07T06:05:05.801Z,3.40
2023-03-07T06:07:32.634Z,3.40
2023-03-07T06:09:59.556Z,3.40
2023-03-07T06:12:26.520Z,3.40
2023-03-07T06:14:53.391Z,3.40
2023-03-07T06:17:20.299Z,3.50
2023-03-07T06:19:47.149Z,3.40
2023-03-07T06:22:14.011Z,3.50
2023-03-07T06:24:40.952Z,3.50
2023-03-07T06:27:07.813Z,3.50
2023-03-07T06:29:34.700Z,3.50
2023-03-07T06:32:01.775Z,3.50
2023-03-07T06:34:28.635Z,3.60
2023-03-07T06:36:55.453Z,3.60
2023-03-07T06:39:22.396Z,3.60
2023-03-07T06:41:50.203Z,3.60
2023-03-07T06:44:17.940Z,3.60
2023-03-07T06:46:45.788Z,3.60
2023-03-07T06:49:12.772Z,3.60
2023-03-07T06:51:39.859Z,3.60
2023-03-07T06:54:06.946Z,3.70
2023-03-07T06:56:35.303Z,3.60
2023-03-07T06:59:03.085Z,3.70
2023-03-07T07:01:29.985Z,3.60
2023-03-07T07:03:57.042Z,3.60
2023-03-07T07:06:24.078Z,3.70
2023-03-07T07:08:54.451Z,3.70
2023-03-07T07:11:21.486Z,3.70
2023-03-07T07:13:48.307Z,3.70
2023-03-07T07:16:15.280Z,3.60
2023-03-07T07:18:42.091Z,3.60
2023-03-07T07:21:08.897Z,3.70
2023-03-07T07:23:35.862Z,3.70
2023-03-07T07:26:03.130Z,3.70
2023-03-07T07:28:29.979Z,3.70
2023-03-07T07:30:56.858Z,3.70
2023-03-07T07:33:23.732Z,3.70
2023-03-07T07:35:50.677Z,3.70
2023-03-07T07:38:17.698Z,3.70
2023-03-07T07:40:45.251Z,3.70
2023-03-07T07:43:15.666Z,3.70
2023-03-07T07:45:42.978Z,3.80
2023-03-07T07:48:10.048Z,3.80
2023-03-07T07:50:36.972Z,3.80
2023-03-07T07:53:04.082Z,3.70
2023-03-07T07:55:31.048Z,3.70
2023-03-07T07:57:57.870Z,3.70
2023-03-07T08:00:25.119Z,3.70
2023-03-07T08:02:52.215Z,3.70
2023-03-07T08:05:21.487Z,3.70
2023-03-07T08:07:49.750Z,3.70
2023-03-07T08:10:17.974Z,3.70
2023-03-07T08:12:47.894Z,3.60
2023-03-07T08:15:17.117Z,3.30
2023-03-07T08:17:44.570Z,3.10
2023-03-07T08:20:11.970Z,3.00
2023-03-07T08:22:39.403Z,2.90
2023-03-07T08:25:07.746Z,2.80
2023-03-07T08:27:34.749Z,2.70
2023-03-07T08:30:02.066Z,2.60
2023-03-07T08:32:29.112Z,2.60
2023-03-07T08:34:55.991Z,2.60
2023-03-07T08:37:22.892Z,2.50
2023-03-07T08:39:49.802Z,2.50
2023-03-07T08:42:16.738Z,2.50
2023-03-07T08:44:43.722Z,2.60
2023-03-07T08:47:12.239Z,2.60
2023-03-07T08:49:40.137Z,2.50
2023-03-07T08:52:07.278Z,2.50
2023-03-07T08:54:34.269Z,2.50
2023-03-07T08:57:01.401Z,2.40
2023-03-07T08:59:28.384Z,2.40
2023-03-07T09:01:56.367Z,2.40
2023-03-07T09:04:23.907Z,2.40
2023-03-07T09:06:51.120Z,2.40
2023-03-07T09:09:17.995Z,2.30
2023-03-07T09:11:44.859Z,2.30
2023-03-07T09:14:11.781Z,2.20
2023-03-07T09:16:38.678Z,2.20
2023-03-07T09:19:05.861Z,2.10
2023-03-07T09:21:32.966Z,2.20
2023-03-07T09:23:59.856Z,2.10
2023-03-07T09:26:26.914Z,2.10
2023-03-07T09:28:53.759Z,2.10
2023-03-07T09:31:20.822Z,2.00
2023-03-07T09:33:47.736Z,2.10
2023-03-07T09:36:16.265Z,2.00
2023-03-07T09:38:43.128Z,2.00
2023-03-07T09:41:51.684Z,2.00
2023-03-07T09:45:04.440Z,2.00
2023-03-07T09:47:57.401Z,1.90
2023-03-07T09:50:55.594Z,1.80
2023-03-07T09:53:44.203Z,1.80
2023-03-07T09:56:23.440Z,1.90
2023-03-07T09:59:00.121Z,1.90
2023-03-07T10:01:29.396Z,1.90
2023-03-07T10:04:12.884Z,1.90
2023-03-07T10:06:42.921Z,2.00
2023-03-07T10:09:18.451Z,2.10
2023-03-07T10:12:12.545Z,2.10
2023-03-07T10:15:20.620Z,2.20
2023-03-07T10:18:23.675Z,2.20
2023-03-07T10:21:25.497Z,2.10
2023-03-07T10:24:18.734Z,2.00
2023-03-07T10:27:05.008Z,2.00
2023-03-07T10:29:52.977Z,2.10
2023-03-07T10:32:46.111Z,2.10
2023-03-07T10:35:20.907Z,2.10
2023-03-07T10:38:20.950Z,2.10
2023-03-07T10:40:57.039Z,2.10
2023-03-07T10:43:33.149Z,2.10
2023-03-07T10:49:10.681Z,2.10
2023-03-07T10:52:01.875Z,2.00
2023-03-07T10:54:34.058Z,2.00
2023-03-07T10:57:26.173Z,2.00
2023-03-07T10:59:53.085Z,2.00
2023-03-07T11:02:49.353Z,2.00
2023-03-07T11:05:33.513Z,2.00
2023-03-07T11:08:01.434Z,2.00
2023-03-07T11:10:40.187Z,2.00
2023-03-07T11:13:18.916Z,2.00
2023-03-07T11:15:46.601Z,2.00
2023-03-07T11:18:26.912Z,2.00
2023-03-07T11:20:54.077Z,2.00
2023-03-07T11:23:32.201Z,2.00
2023-03-07T11:26:22.880Z,2.00
2023-03-07T11:29:05.475Z,2.00
2023-03-07T11:32:20.846Z,2.00
2023-03-07T11:34:53.468Z,1.90
2023-03-07T11:37:27.315Z,1.90
2023-03-07T11:40:13.014Z,1.80
2023-03-07T11:42:51.606Z,1.70
2023-03-07T11:45:39.437Z,1.70
2023-03-07T11:48:43.835Z,1.60
2023-03-07T11:51:27.912Z,1.60
2023-03-07T11:54:59.573Z,1.60
2023-03-07T11:57:58.596Z,1.60
2023-03-07T12:00:52.619Z,1.60
2023-03-07T12:23:25.993Z,1.40
2023-03-07T12:25:58.995Z,1.40
2023-03-07T12:28:41.201Z,1.50
2023-03-07T12:31:33.572Z,1.50
2023-03-07T12:34:29.163Z,1.50
2023-03-07T12:37:22.488Z,1.60
2023-03-07T12:39:55.940Z,1.60
2023-03-07T12:42:48.931Z,1.70
2023-03-07T12:45:23.734Z,1.70
2023-03-07T12:48:07.070Z,1.70
2023-03-07T12:50:54.124Z,1.70
2023-03-07T12:53:44.634Z,1.70
2023-03-07T12:56:53.426Z,1.70
2023-03-07T12:59:21.923Z,1.80
2023-03-07T13:02:04.286Z,1.80
2023-03-07T13:04:39.413Z,1.90
2023-03-07T13:07:34.364Z,2.00
2023-03-07T13:10:05.994Z,2.10
2023-03-07T13:12:37.354Z,2.20
2023-03-07T13:15:39.140Z,2.40
2023-03-07T13:18:27.347Z,2.50
2023-03-07T13:21:12.298Z,2.60
2023-03-07T13:23:39.252Z,2.70
2023-03-07T13:26:10.551Z,2.70
2023-03-07T13:28:42.752Z,2.80
2023-03-07T13:31:39.487Z,2.80
2023-03-07T13:34:41.605Z,2.80
2023-03-07T13:37:45.913Z,2.70
2023-03-07T13:41:05.499Z,2.80
2023-03-07T13:43:57.917Z,2.70
2023-03-07T13:46:47.354Z,2.80
2023-03-07T13:49:34.700Z,2.80
2023-03-07T13:52:23.636Z,2.80
2023-03-07T13:54:51.970Z,2.90
2023-03-07T13:57:21.528Z,2.90
2023-03-07T13:59:49.824Z,2.90
2023-03-07T14:02:18.397Z,3.00
2023-03-07T14:04:54.570Z,3.00
2023-03-07T14:07:35.055Z,3.10
2023-03-07T14:10:27.975Z,2.90
2023-03-07T14:13:28.248Z,2.90
2023-03-07T14:16:13.279Z,2.90
2023-03-07T14:19:17.661Z,3.00
2023-03-07T14:22:12.113Z,3.20
2023-03-07T14:25:18.117Z,3.20
2023-03-07T14:27:57.203Z,3.20
2023-03-07T14:30:27.435Z,3.30
2023-03-07T14:32:54.454Z,3.30
2023-03-07T14:35:41.414Z,3.20
2023-03-07T14:38:17.093Z,3.20
2023-03-07T14:41:10.328Z,3.20
2023-03-07T14:44:44.322Z,3.20
2023-03-07T14:48:00.518Z,3.30
2023-03-07T14:50:29.775Z,3.30
2023-03-07T14:53:05.119Z,3.20
2023-03-07T14:55:38.851Z,3.20
2023-03-07T14:58:06.091Z,3.20
2023-03-07T15:00:34.719Z,3.20
2023-03-07T15:03:19.520Z,3.20
2023-03-07T15:06:01.531Z,3.20
2023-03-07T15:08:35.278Z,3.20
2023-03-07T15:11:26.784Z,3.20
2023-03-07T15:14:08.665Z,3.20
2023-03-07T15:16:44.354Z,3.20
2023-03-07T15:19:21.731Z,3.10
2023-03-07T15:21:54.842Z,3.10
2023-03-07T15:24:30.993Z,3.00
2023-03-07T15:26:59.535Z,2.90
2023-03-07T15:29:29.743Z,2.90
2023-03-07T15:32:09.103Z,2.90
2023-03-07T15:34:40.287Z,2.90
2023-03-07T15:37:28.155Z,2.90
2023-03-07T15:39:57.861Z,2.90
2023-03-07T15:42:25.154Z,3.00
2023-03-07T15:44:59.666Z,2.90
2023-03-07T15:47:28.943Z,2.90
2023-03-07T15:50:06.380Z,2.90
2023-03-07T15:52:38.373Z,2.90
2023-03-07T15:55:16.245Z,2.90
2023-03-07T15:57:56.088Z,2.90
2023-03-07T16:00:33.130Z,2.90
2023-03-07T16:03:30.034Z,2.90
2023-03-07T16:05:59.130Z,2.80
2023-03-07T16:08:26.311Z,2.80
2023-03-07T16:11:11.829Z,2.80
2023-03-07T16:13:44.293Z,2.80
2023-03-07T16:16:22.262Z,2.80
2023-03-07T16:18:49.684Z,2.80
2023-03-07T16:21:17.945Z,2.70
2023-03-07T16:23:46.206Z,2.70
2023-03-07T16:26:24.372Z,2.70
2023-03-07T16:28:52.939Z,2.60
2023-03-07T16:31:20.944Z,2.60
2023-03-07T16:33:48.182Z,2.60
2023-03-07T16:36:15.997Z,2.60
2023-03-07T16:38:42.993Z,2.60
2023-03-07T16:41:21.987Z,2.50
2023-03-07T16:43:58.966Z,2.50
2023-03-07T16:46:28.256Z,2.50
2023-03-07T16:48:55.192Z,2.50
2023-03-07T16:51:25.744Z,2.40
2023-03-07T16:53:52.688Z,2.30
2023-03-07T16:56:28.626Z,2.20
2023-03-07T16:58:56.468Z,2.10
2023-03-07T17:01:23.443Z,2.00
2023-03-07T17:03:50.346Z,2.00
2023-03-07T17:06:18.258Z,1.90
2023-03-07T17:08:45.576Z,1.80
2023-03-07T17:11:21.447Z,1.80
2023-03-07T17:13:51.499Z,1.80
2023-03-07T17:16:19.197Z,1.70
2023-03-07T17:18:46.400Z,1.70
2023-03-07T17:21:15.549Z,1.70
2023-03-07T17:23:44.134Z,1.60
2023-03-07T17:26:31.466Z,1.60
2023-03-07T17:29:02.769Z,1.60
2023-03-07T17:31:29.734Z,1.60
2023-03-07T17:33:56.691Z,1.50
2023-03-07T17:36:25.023Z,1.50
2023-03-07T17:38:52.300Z,1.40
2023-03-07T17:41:19.234Z,1.40
2023-03-07T17:43:46.188Z,1.40
2023-03-07T17:46:13.082Z,1.30
2023-03-07T17:48:40.104Z,1.20
2023-03-07T17:51:12.880Z,1.20
2023-03-07T17:53:39.711Z,1.20
2023-03-07T17:56:11.682Z,1.20
2023-03-07T17:58:38.912Z,1.20
2023-03-07T18:01:11.302Z,1.20
2023-03-07T18:03:38.948Z,1.20
2023-03-07T18:06:06.109Z,1.10
2023-03-07T18:08:33.154Z,1.10
2023-03-07T18:11:11.819Z,1.10
2023-03-07T18:13:39.439Z,1.10
2023-03-07T18:16:07.504Z,1.10
2023-03-07T18:18:37.022Z,1.10
2023-03-07T18:21:11.085Z,1.10
2023-03-07T18:23:38.758Z,1.20
2023-03-07T18:26:09.109Z,1.10
2023-03-07T18:28:38.096Z,1.10
2023-03-07T18:31:29.697Z,1.10
2023-03-07T18:33:56.933Z,1.10
2023-03-07T18:36:25.342Z,1.10
2023-03-07T18:38:52.327Z,1.00
2023-03-07T18:41:21.559Z,1.00
2023-03-07T18:43:48.716Z,1.00
2023-03-07T18:46:18.253Z,0.90
2023-03-07T18:48:45.998Z,0.90
2023-03-07T18:51:16.261Z,0.90
2023-03-07T18:53:43.638Z,0.80
2023-03-07T18:56:13.087Z,0.80
2023-03-07T18:58:40.726Z,0.80
2023-03-07T19:01:27.139Z,0.80
2023-03-07T19:03:55.519Z,0.80
2023-03-07T19:06:24.603Z,0.80
2023-03-07T19:08:51.841Z,0.80
2023-03-07T19:11:19.829Z,0.80
2023-03-07T19:13:46.712Z,0.80
2023-03-07T19:16:19.610Z,0.80
2023-03-07T19:18:47.036Z,0.80
2023-03-07T19:21:19.457Z,0.80
2023-03-07T19:23:47.117Z,0.70
2023-03-07T19:26:18.389Z,0.70
2023-03-07T19:28:46.848Z,0.70
2023-03-07T19:31:28.795Z,0.70
2023-03-07T19:33:56.265Z,0.80
2023-03-07T19:36:27.163Z,0.80
2023-03-07T19:38:56.475Z,0.80
2023-03-07T19:41:25.145Z,0.70
2023-03-07T19:43:52.757Z,0.70
2023-03-07T19:46:21.126Z,0.70
2023-03-07T19:48:48.355Z,0.70
2023-03-07T19:51:26.053Z,0.70
2023-03-07T19:53:56.793Z,0.70
2023-03-07T19:56:29.222Z,0.80
2023-03-07T19:58:57.753Z,0.70
2023-03-07T20:01:25.262Z,0.70
2023-03-07T20:03:53.447Z,0.70
2023-03-07T20:06:23.578Z,0.70
2023-03-07T20:08:52.255Z,0.70
2023-03-07T20:11:27.629Z,0.70
2023-03-07T20:13:56.218Z,0.70
2023-03-07T20:16:24.728Z,0.70
2023-03-07T20:18:54.351Z,0.70
2023-03-07T20:21:22.435Z,0.70
2023-03-07T20:23:49.582Z,0.70
2023-03-07T20:26:25.386Z,0.70
2023-03-07T20:28:54.222Z,0.70
2023-03-07T20:31:22.390Z,0.80
2023-03-07T20:33:50.071Z,0.70
2023-03-07T20:36:24.937Z,0.70
2023-03-07T20:38:54.897Z,0.80
2023-03-07T20:41:24.247Z,0.80
2023-03-07T20:43:52.441Z,0.80
2023-03-07T20:46:21.627Z,0.80
2023-03-07T20:48:49.137Z,0.80
2023-03-07T20:51:19.074Z,0.80
2023-03-07T20:53:51.688Z,0.80
2023-03-07T20:56:19.590Z,0.80
2023-03-07T20:58:46.817Z,0.80
2023-03-07T21:01:16.101Z,0.80
2023-03-07T21:03:43.094Z,0.80
2023-03-07T21:06:10.314Z,0.80
2023-03-07T21:08:38.072Z,0.80
2023-03-07T21:11:16.726Z,0.80
2023-03-07T21:13:46.005Z,0.80
2023-03-07T21:16:18.572Z,0.80
2023-03-07T21:18:46.010Z,0.90
2023-03-07T21:21:22.576Z,0.90
2023-03-07T21:23:49.472Z,0.90
2023-03-07T21:26:21.632Z,0.90
2023-03-07T21:28:52.550Z,0.90
2023-03-07T21:31:31.068Z,0.90
2023-03-07T21:34:00.415Z,0.90
2023-03-07T21:36:29.295Z,0.90
2023-03-07T21:38:56.320Z,0.90
2023-03-07T21:41:25.171Z,0.90
2023-03-07T21:43:53.672Z,0.90
2023-03-07T21:46:20.854Z,0.90
2023-03-07T21:48:47.811Z,1.00
2023-03-07T21:51:15.022Z,1.00
2023-03-07T21:53:41.936Z,1.00
2023-03-07T21:56:11.881Z,0.90
2023-03-07T21:58:40.405Z,0.90
2023-03-07T22:01:16.493Z,0.90
2023-03-07T22:03:43.928Z,0.90
2023-03-07T22:06:13.668Z,1.00
2023-03-07T22:08:41.065Z,1.00
2023-03-07T22:11:10.058Z,1.00
2023-03-07T22:13:39.756Z,1.00
2023-03-07T22:16:10.598Z,1.00
2023-03-07T22:18:37.792Z,1.00
2023-03-07T22:21:14.183Z,1.00
2023-03-07T22:23:42.070Z,1.00
2023-03-07T22:26:10.609Z,1.00
2023-03-07T22:28:38.045Z,1.00
2023-03-07T22:31:07.608Z,1.00
2023-03-07T22:33:34.630Z,1.00
2023-03-07T22:36:04.668Z,1.00
2023-03-07T22:38:32.239Z,1.00
2023-03-07T22:41:08.304Z,1.10
2023-03-07T22:43:36.094Z,1.10
2023-03-07T22:46:03.651Z,1.10
2023-03-07T22:48:31.320Z,1.10
2023-03-07T22:50:58.667Z,1.10
2023-03-07T22:53:29.540Z,1.10
2023-03-07T22:55:59.172Z,1.10
2023-03-07T22:58:26.975Z,1.10
2023-03-07T23:00:53.996Z,1.10
2023-03-07T23:03:21.045Z,1.10
2023-03-07T23:05:47.919Z,1.10
2023-03-07T23:08:14.781Z,1.10
2023-03-07T23:10:41.694Z,1.10
2023-03-07T23:13:08.592Z,1.10
2023-03-07T23:15:38.772Z,1.10
2023-03-07T23:18:05.663Z,1.10
2023-03-07T23:20:32.549Z,1.10
2023-03-07T23:22:59.387Z,1.10
2023-03-07T23:25:26.318Z,1.10
2023-03-07T23:27:53.168Z,1.10
2023-03-07T23:30:20.401Z,1.10
2023-03-07T23:32:47.241Z,1.10
2023-03-07T23:35:14.414Z,1.10
2023-03-07T23:37:42.637Z,1.10
2023-03-07T23:40:12.143Z,1.10
2023-03-07T23:42:39.150Z,1.00
2023-03-07T23:45:06.647Z,1.00
2023-03-07T23:47:34.451Z,0.90
2023-03-07T23:50:01.398Z,0.90
2023-03-07T23:52:28.295Z,0.90
2023-03-07T23:54:55.137Z,0.80
2023-03-07T23:57:22.067Z,0.80
2023-03-07T23:59:49.675Z,0.80
